createdAt,value
2023-01-21T00:03:02.959Z,100814.28
2023-01-21T00:08:06.036Z,100810.84
2023-01-21T00:13:08.858Z,100814.97
2023-01-21T00:18:13.051Z,100822.75
2023-01-21T00:23:16.222Z,100819.50
2023-01-21T00:28:18.959Z,100829.31
2023-01-21T00:33:23.184Z,100834.72
2023-01-21T00:38:26.022Z,100843.75
2023-01-21T00:43:28.818Z,100853.47
2023-01-21T00:48:33.778Z,100849.16
2023-01-21T00:53:39.112Z,100857.91
2023-01-21T00:58:43.345Z,100862.81
2023-01-21T01:03:49.102Z,100858.88
2023-01-21T01:08:52.089Z,100858.97
2023-01-21T01:13:55.336Z,100862.53
2023-01-21T01:18:59.500Z,100864.75
2023-01-21T01:24:03.161Z,100867.81
2023-01-21T01:29:06.541Z,100865.13
2023-01-21T01:34:10.617Z,100865.50
2023-01-21T01:39:13.383Z,100868.38
2023-01-21T01:44:55.456Z,100878.28
2023-01-21T01:50:02.406Z,100887.63
2023-01-21T01:55:07.226Z,100885.03
2023-01-21T02:00:12.714Z,100886.38
2023-01-21T02:05:16.898Z,100886.66
2023-01-21T02:10:20.942Z,100883.41
2023-01-21T02:15:29.896Z,100887.13
2023-01-21T02:20:56.193Z,100889.78
2023-01-21T02:26:37.927Z,100894.66
2023-01-21T02:32:10.392Z,100894.13
2023-01-21T02:37:18.589Z,100902.28
2023-01-21T02:42:29.975Z,100913.38
2023-01-21T02:47:39.180Z,100906.75
2023-01-21T02:52:43.272Z,100916.69
2023-01-21T02:57:50.047Z,100915.34
2023-01-21T03:03:23.946Z,100917.31
2023-01-21T03:08:34.021Z,100919.41
2023-01-21T03:14:00.887Z,100926.78
2023-01-21T03:19:07.887Z,100927.91
2023-01-21T03:24:15.513Z,100935.16
2023-01-21T03:29:22.816Z,100931.75
2023-01-21T03:34:28.856Z,100944.41
2023-01-21T03:39:43.271Z,100935.00
2023-01-21T03:44:46.984Z,100940.28
2023-01-21T03:49:54.766Z,100934.31
2023-01-21T03:54:59.954Z,100934.38
2023-01-21T04:00:02.786Z,100933.69
2023-01-21T04:05:07.917Z,100937.34
2023-01-21T04:10:12.666Z,100939.34
2023-01-21T04:15:15.524Z,100943.03
2023-01-21T04:20:19.765Z,100938.75
2023-01-21T04:25:23.872Z,100947.84
2023-01-21T04:30:26.677Z,100948.78
2023-01-21T04:35:29.393Z,100955.25
2023-01-21T04:40:33.717Z,100962.44
2023-01-21T04:45:36.549Z,100968.75
2023-01-21T04:50:39.321Z,100975.13
2023-01-21T04:55:43.670Z,100983.34
2023-01-21T05:00:46.443Z,100985.31
2023-01-21T05:05:49.245Z,100996.03
2023-01-21T05:10:53.492Z,101004.97
2023-01-21T05:15:56.853Z,101013.19
2023-01-21T05:20:59.696Z,101014.19
2023-01-21T05:26:03.952Z,101018.59
2023-01-21T05:31:06.862Z,101029.50
2023-01-21T05:36:11.069Z,101021.66
2023-01-21T05:41:15.253Z,101032.38
2023-01-21T05:46:18.133Z,101028.97
2023-01-21T05:51:21.159Z,101037.97
2023-01-21T05:56:25.356Z,101043.25
2023-01-21T06:01:28.156Z,101037.03
2023-01-21T06:06:30.910Z,101043.50
2023-01-21T06:11:35.136Z,101040.81
2023-01-21T06:16:37.951Z,101036.44
2023-01-21T06:21:40.751Z,101033.75
2023-01-21T06:26:44.882Z,101033.75
2023-01-21T06:31:47.785Z,101034.78
2023-01-21T06:36:50.681Z,101029.56
2023-01-21T06:41:55.444Z,101034.78
2023-01-21T06:47:01.985Z,101035.78
2023-01-21T06:52:05.324Z,101041.97
2023-01-21T06:57:09.446Z,101046.69
2023-01-21T07:02:13.909Z,101062.34
2023-01-21T07:07:16.667Z,101064.31
2023-01-21T07:12:20.971Z,101069.81
2023-01-21T07:17:23.796Z,101073.50
2023-01-21T07:22:26.561Z,101081.59
2023-01-21T07:27:30.715Z,101072.78
2023-01-21T07:32:33.531Z,101075.63
2023-01-21T07:37:36.312Z,101061.31
2023-01-21T07:42:40.540Z,101073.06
2023-01-21T07:47:43.390Z,101075.00
2023-01-21T07:52:46.223Z,101074.28
2023-01-21T07:57:50.346Z,101076.03
2023-01-21T08:02:53.964Z,101070.56
2023-01-21T08:07:58.852Z,101083.97
2023-01-21T08:13:03.745Z,101069.09
2023-01-21T08:18:06.656Z,101070.84
2023-01-21T08:23:09.357Z,101080.81
2023-01-21T08:28:14.189Z,101075.25
2023-01-21T08:33:17.095Z,101075.19
2023-01-21T08:38:19.899Z,101076.28
2023-01-21T08:43:23.982Z,101067.69
2023-01-21T08:48:26.718Z,101077.13
2023-01-21T08:53:29.564Z,101073.19
2023-01-21T08:58:34.633Z,101072.50
2023-01-21T09:03:37.674Z,101075.56
2023-01-21T09:08:42.155Z,101085.31
2023-01-21T09:13:46.839Z,101082.41
2023-01-21T09:18:50.457Z,101083.72
2023-01-21T09:23:53.475Z,101089.66
2023-01-21T09:28:59.242Z,101092.13
2023-01-21T09:34:05.300Z,101089.09
2023-01-21T09:39:08.194Z,101085.22
2023-01-21T09:44:21.612Z,101083.22
2023-01-21T09:49:29.119Z,101088.34
2023-01-21T09:54:33.941Z,101100.69
2023-01-21T09:59:47.872Z,101096.00
2023-01-21T10:04:58.008Z,101100.28
2023-01-21T10:10:11.417Z,101106.38
2023-01-21T10:15:31.510Z,101112.44
2023-01-21T10:20:40.154Z,101107.88
2023-01-21T10:25:43.043Z,101111.25
2023-01-21T10:30:51.433Z,101107.53
2023-01-21T10:36:24.759Z,101102.88
2023-01-21T10:41:46.109Z,101102.88
2023-01-21T10:46:55.187Z,101100.00
2023-01-21T10:52:04.674Z,101102.59
2023-01-21T10:57:21.169Z,101102.47
2023-01-21T11:02:31.178Z,101094.28
2023-01-21T11:07:38.934Z,101097.50
2023-01-21T11:12:41.762Z,101094.56
2023-01-21T11:17:48.380Z,101075.59
2023-01-21T11:22:52.132Z,101071.75
2023-01-21T11:27:55.057Z,101072.59
2023-01-21T11:33:21.297Z,101070.72
2023-01-21T11:38:32.503Z,101060.38
2023-01-21T11:43:37.579Z,101049.63
2023-01-21T11:48:44.069Z,101042.78
2023-01-21T11:53:47.604Z,101043.66
2023-01-21T11:58:50.511Z,101037.47
2023-01-21T12:03:57.574Z,101038.38
2023-01-21T12:09:03.753Z,101029.34
2023-01-21T12:14:17.940Z,101015.06
2023-01-21T12:19:44.939Z,101007.53
2023-01-21T12:25:04.004Z,101010.53
2023-01-21T12:30:19.738Z,101003.38
2023-01-21T12:35:29.944Z,100996.47
2023-01-21T12:40:35.748Z,100991.09
2023-01-21T12:45:46.066Z,100984.94
2023-01-21T12:50:55.767Z,100975.97
2023-01-21T12:56:15.594Z,100978.41
2023-01-21T13:01:33.971Z,100984.66
2023-01-21T13:06:53.629Z,100980.13
2023-01-21T13:12:02.761Z,100968.50
2023-01-21T13:17:14.272Z,100956.84
2023-01-21T13:22:29.513Z,100957.81
2023-01-21T13:27:44.229Z,100967.63
2023-01-21T13:32:54.379Z,100953.19
2023-01-21T13:38:06.536Z,100972.06
2023-01-21T13:43:31.221Z,100973.97
2023-01-21T13:48:51.434Z,100966.66
2023-01-21T13:54:12.304Z,100962.00
2023-01-21T13:59:22.507Z,100965.56
2023-01-21T14:04:33.653Z,100952.97
2023-01-21T14:09:45.767Z,100960.19
2023-01-21T14:15:22.944Z,100944.72
2023-01-21T14:20:39.085Z,100943.41
2023-01-21T14:26:01.612Z,100932.91
2023-01-21T14:31:11.370Z,100940.22
2023-01-21T14:36:19.474Z,100942.03
2023-01-21T14:41:23.633Z,100923.09
2023-01-21T14:46:33.688Z,100916.47
2023-01-21T14:51:38.766Z,100916.38
2023-01-21T14:56:53.912Z,100903.88
2023-01-21T15:02:01.366Z,100898.31
2023-01-21T15:07:09.410Z,100884.94
2023-01-21T15:12:18.767Z,100878.50
2023-01-21T15:17:47.889Z,100877.44
2023-01-21T15:23:04.878Z,100868.13
2023-01-21T15:28:44.868Z,100858.44
2023-01-21T15:33:50.564Z,100847.19
2023-01-21T15:39:02.305Z,100844.50
2023-01-21T15:44:23.846Z,100841.81
2023-01-21T15:49:40.007Z,100853.66
2023-01-21T15:54:50.602Z,100841.81
2023-01-21T16:00:24.252Z,100842.88
2023-01-21T16:05:37.449Z,100842.97
2023-01-21T16:10:50.842Z,100840.28
2023-01-21T16:16:07.511Z,100836.94
2023-01-21T16:21:11.984Z,100831.53
2023-01-21T16:26:25.123Z,100820.75
2023-01-21T16:31:29.460Z,100817.09
2023-01-21T16:36:38.621Z,100823.44
2023-01-21T16:41:41.446Z,100823.53
2023-01-21T16:46:46.260Z,100819.69
2023-01-21T16:51:54.084Z,100829.38
2023-01-21T16:57:00.320Z,100831.16
2023-01-21T17:02:05.862Z,100824.50
2023-01-21T17:07:15.000Z,100822.75
2023-01-21T17:12:25.116Z,100811.78
2023-01-21T17:17:32.182Z,100826.50
2023-01-21T17:22:41.152Z,100827.28
2023-01-21T17:27:46.065Z,100819.13
2023-01-21T17:32:55.972Z,100823.94
2023-01-21T17:38:01.104Z,100830.06
2023-01-21T17:43:19.053Z,100821.81
2023-01-21T17:48:29.657Z,100822.09
2023-01-21T17:58:45.443Z,100819.69
2023-01-21T18:03:49.722Z,100824.50
2023-01-21T18:08:53.989Z,100817.28
2023-01-21T18:13:56.778Z,100822.00
2023-01-21T18:19:00.945Z,100814.88
2023-01-21T18:24:03.781Z,100811.53
2023-01-21T18:29:07.473Z,100824.88
2023-01-21T18:34:12.715Z,100830.94
2023-01-21T18:39:18.553Z,100830.28
2023-01-21T18:44:21.335Z,100825.84
2023-01-21T18:49:27.630Z,100818.34
2023-01-21T18:54:30.624Z,100816.31
2023-01-21T18:59:33.422Z,100821.41
2023-01-21T19:04:37.786Z,100817.19
2023-01-21T19:09:45.920Z,100822.94
2023-01-21T19:14:49.636Z,100818.16
2023-01-21T19:19:54.019Z,100817.66
2023-01-21T19:24:56.753Z,100823.44
2023-01-21T19:29:59.521Z,100822.66
2023-01-21T19:35:03.573Z,100825.53
2023-01-21T19:40:14.427Z,100823.06
2023-01-21T19:45:19.531Z,100833.63
2023-01-21T19:50:25.291Z,100832.38
2023-01-21T19:55:37.076Z,100830.16
2023-01-21T20:00:39.842Z,100834.69
2023-01-21T20:05:44.019Z,100837.19
2023-01-21T20:10:46.837Z,100840.38
2023-01-21T20:15:52.014Z,100851.78
2023-01-21T20:20:56.819Z,100849.69
2023-01-21T20:26:01.044Z,100854.34
2023-01-21T20:31:06.607Z,100860.47
2023-01-21T20:36:19.941Z,100858.75
2023-01-21T20:41:23.216Z,100869.13
2023-01-21T20:46:29.395Z,100870.97
2023-01-21T20:51:33.512Z,100874.81
2023-01-21T20:56:38.212Z,100876.03
2023-01-21T21:01:41.041Z,100885.50
2023-01-21T21:06:45.755Z,100886.47
2023-01-21T21:11:48.581Z,100891.19
2023-01-21T21:16:51.714Z,100889.25
2023-01-21T21:21:56.032Z,100885.88
2023-01-21T21:26:59.207Z,100896.66
2023-01-21T21:32:02.523Z,100909.75
2023-01-21T21:37:06.740Z,100911.59
2023-01-21T21:42:29.690Z,100914.56
2023-01-21T21:47:49.854Z,100909.16
2023-01-21T21:52:53.969Z,100907.34
2023-01-21T21:57:56.726Z,100917.47
2023-01-21T22:03:02.047Z,100912.84
2023-01-21T22:08:07.026Z,100913.13
2023-01-21T22:13:10.152Z,100917.47
2023-01-21T22:18:12.904Z,100924.13
2023-01-21T22:23:17.018Z,100922.66
2023-01-21T22:28:20.142Z,100932.88
2023-01-21T22:33:22.877Z,100931.81
2023-01-21T22:38:27.068Z,100942.22
2023-01-21T22:43:30.595Z,100947.00
2023-01-21T22:48:33.887Z,100950.81
2023-01-21T22:53:40.085Z,100940.16
2023-01-21T22:58:42.896Z,100952.28
2023-01-21T23:03:45.573Z,100953.09
2023-01-21T23:08:50.420Z,100952.81
2023-01-21T23:13:55.355Z,100949.81
2023-01-21T23:18:59.379Z,100952.41
2023-01-21T23:24:03.509Z,100950.94
2023-01-21T23:29:06.364Z,100948.75
2023-01-21T23:34:12.794Z,100947.59
2023-01-21T23:39:17.096Z,100947.38
2023-01-21T23:44:20.400Z,100951.31
2023-01-21T23:49:23.184Z,100948.75
2023-01-21T23:54:27.318Z,100944.59
2023-01-21T23:59:30.457Z,100948.75
